Time;durP1;ratioP1;P1;durP2;ratioP2;P2;SDS_P1;SDS_P2;PMS_P1;PMS_P2;Temp;Humidity;BMP_temperature;BMP_pressure;BME280_temperature;BME280_humidity;BME280_pressure;Samples;Min_cycle;Max_cycle;Signal;HPM_P1;HPM_P2
2022/09/16 00:02:13;;;;;;;3.07;1.97;;;;;;;12.09;88.67;99747.97;5051359;28;20216;-76
2022/09/16 00:04:40;;;;;;;5.53;2.40;;;;;;;11.90;89.16;99743.41;5051010;28;20294;-76
2022/09/16 00:07:06;;;;;;;1.97;1.87;;;;;;;11.92;89.46;99725.91;5051147;28;20211;-76
2022/09/16 00:09:33;;;;;;;3.90;2.33;;;;;;;11.74;90.56;99695.16;5050631;28;20560;-76
2022/09/16 00:12:01;;;;;;;3.87;2.47;;;;;;;11.76;90.04;99689.88;5051295;28;20261;-76
2022/09/16 00:14:27;;;;;;;2.90;2.53;;;;;;;11.76;90.77;99677.66;5053662;28;20231;-76
2022/09/16 00:16:54;;;;;;;4.27;3.27;;;;;;;11.71;91.47;99661.28;5054534;28;20225;-76
2022/09/16 00:19:22;;;;;;;6.30;3.07;;;;;;;11.66;92.21;99635.31;5054339;28;20231;-76
2022/09/16 00:21:48;;;;;;;3.40;3.10;;;;;;;11.78;92.10;99635.78;5054606;28;20257;-76
2022/09/16 00:24:15;;;;;;;3.47;3.10;;;;;;;11.78;92.26;99625.31;5054356;28;20287;-76
2022/09/16 00:26:42;;;;;;;4.80;3.57;;;;;;;11.77;92.23;99623.59;5054429;28;20250;-76
2022/09/16 00:29:10;;;;;;;3.73;2.63;;;;;;;11.77;92.47;99621.00;5054380;28;20214;-76
2022/09/16 00:31:37;;;;;;;3.70;2.97;;;;;;;11.80;92.26;99631.34;5054523;28;20211;-76
2022/09/16 00:34:03;;;;;;;3.10;2.83;;;;;;;11.55;92.85;99628.75;5054315;28;20222;-76
2022/09/16 00:36:30;;;;;;;3.53;2.40;;;;;;;11.67;93.33;99596.94;5053976;28;20238;-76
2022/09/16 00:38:56;;;;;;;7.50;2.90;;;;;;;11.61;93.07;99610.25;5054585;28;20209;-77
2022/09/16 00:41:25;;;;;;;4.30;2.30;;;;;;;11.49;93.58;99601.09;5054396;28;20234;-76
2022/09/16 00:43:56;;;;;;;2.37;1.87;;;;;;;11.50;93.75;99593.19;5054215;28;20231;-76
2022/09/16 00:46:29;;;;;;;4.23;2.67;;;;;;;11.45;93.97;99586.44;5053614;28;20207;-76
2022/09/16 00:48:57;;;;;;;5.47;2.20;;;;;;;11.55;93.73;99594.78;5054092;28;20209;-76
2022/09/16 00:51:24;;;;;;;2.83;1.87;;;;;;;11.53;93.10;99607.91;5054364;28;20276;-76
2022/09/16 00:53:55;;;;;;;2.00;1.83;;;;;;;11.55;93.56;99607.84;5054467;28;20229;-76
2022/09/16 00:56:25;;;;;;;4.43;1.70;;;;;;;11.59;93.14;99619.91;5053983;28;20216;-75
2022/09/16 00:59:01;;;;;;;3.50;1.50;;;;;;;11.58;92.68;99620.81;5054018;28;20205;-76
2022/09/16 01:01:30;;;;;;;3.00;2.00;;;;;;;11.32;93.26;99622.59;5054045;28;20192;-75
2022/09/16 01:04:02;;;;;;;2.77;1.87;;;;;;;11.39;93.74;99599.72;5053964;28;20231;-75
2022/09/16 01:06:29;;;;;;;3.13;1.70;;;;;;;11.42;93.39;99604.84;5053512;28;20746;-76
2022/09/16 01:08:56;;;;;;;2.60;1.70;;;;;;;11.47;93.14;99613.34;5053776;28;20212;-76
2022/09/16 01:11:23;;;;;;;3.20;1.60;;;;;;;11.36;93.40;99618.09;5053612;28;20291;-75
2022/09/16 01:13:51;;;;;;;3.17;2.03;;;;;;;11.36;93.36;99603.31;5053540;28;20791;-75
2022/09/16 01:16:25;;;;;;;4.40;1.77;;;;;;;11.32;93.80;99610.38;5053109;28;20224;-75
2022/09/16 01:19:02;;;;;;;3.17;1.53;;;;;;;11.31;93.43;99608.66;5053556;28;20210;-76
2022/09/16 01:21:42;;;;;;;2.73;1.60;;;;;;;11.42;93.46;99615.31;5053821;28;20702;-76
2022/09/16 01:24:34;;;;;;;4.03;1.60;;;;;;;11.51;92.81;99626.25;5053648;28;20312;-75
2022/09/16 01:27:18;;;;;;;4.27;1.67;;;;;;;11.46;92.27;99637.81;5033518;28;20240;-76
2022/09/16 01:30:06;;;;;;;2.80;1.57;;;;;;;11.30;93.45;99624.41;5033354;28;20222;-76
2022/09/16 01:32:48;;;;;;;4.30;1.43;;;;;;;11.36;93.36;99615.50;5033257;28;20247;-76
2022/09/16 01:35:21;;;;;;;3.47;1.50;;;;;;;11.26;93.77;99601.94;5033314;28;20229;-76
2022/09/16 01:37:54;;;;;;;4.80;2.20;;;;;;;11.31;93.62;99602.59;5033334;28;20643;-76
2022/09/16 01:40:29;;;;;;;3.20;1.80;;;;;;;11.33;93.67;99604.25;5033405;28;20250;-76
2022/09/16 01:43:03;;;;;;;4.47;1.40;;;;;;;11.35;93.79;99590.28;5032748;28;20217;-76
2022/09/16 01:45:37;;;;;;;2.90;1.27;;;;;;;11.43;93.59;99596.94;5032518;28;20958;-76
2022/09/16 01:48:12;;;;;;;4.33;1.40;;;;;;;11.45;94.02;99607.34;5032996;28;20210;-75
2022/09/16 01:50:45;;;;;;;2.90;1.23;;;;;;;11.42;93.84;99610.06;5032719;28;20258;-75
2022/09/16 01:53:16;;;;;;;2.47;1.07;;;;;;;11.49;93.50;99601.94;5043392;28;20202;-77
2022/09/16 01:55:50;;;;;;;3.30;1.03;;;;;;;11.49;93.29;99624.59;5052124;28;20703;-76
2022/09/16 01:58:23;;;;;;;2.20;1.10;;;;;;;11.58;92.96;99636.50;5052438;28;20230;-76
2022/09/16 02:00:55;;;;;;;1.67;1.10;;;;;;;11.66;92.35;99645.78;5052775;28;20195;-76
2022/09/16 02:03:26;;;;;;;2.20;1.23;;;;;;;11.64;92.30;99654.59;5053101;28;20612;-75
2022/09/16 02:05:57;;;;;;;2.17;1.43;;;;;;;11.56;92.26;99654.00;5052652;28;20234;-75
2022/09/16 02:08:28;;;;;;;1.80;1.17;;;;;;;11.52;92.40;99654.09;5052428;28;20193;-75
2022/09/16 02:10:59;;;;;;;4.67;1.10;;;;;;;11.63;92.48;99632.78;5052506;28;20666;-76
2022/09/16 02:13:30;;;;;;;1.50;1.30;;;;;;;11.62;92.20;99648.56;5052352;28;20693;-76
2022/09/16 02:16:04;;;;;;;2.60;1.20;;;;;;;11.53;92.62;99640.16;5052108;28;20208;-75
2022/09/16 02:18:36;;;;;;;4.10;1.30;;;;;;;11.45;92.88;99636.94;5051992;28;20232;-76
2022/09/16 02:21:07;;;;;;;4.87;1.47;;;;;;;11.60;92.54;99637.31;5052549;28;20200;-75
2022/09/16 02:23:39;;;;;;;2.57;1.00;;;;;;;11.65;91.85;99645.81;5051919;28;20704;-76
2022/09/16 02:26:08;;;;;;;3.70;1.30;;;;;;;11.71;91.52;99658.66;5052295;28;20195;-76
2022/09/16 02:28:39;;;;;;;2.47;1.70;;;;;;;11.57;91.81;99653.09;5051867;28;20219;-76
2022/09/16 02:31:08;;;;;;;2.50;1.73;;;;;;;11.49;92.42;99633.28;5052170;28;20195;-75
2022/09/16 02:33:42;;;;;;;3.80;1.80;;;;;;;11.49;92.44;99633.28;5052285;28;20203;-76
2022/09/16 02:36:12;;;;;;;3.47;2.27;;;;;;;11.44;93.17;99610.88;5051772;28;20250;-76
2022/09/16 02:38:44;;;;;;;2.43;1.40;;;;;;;11.50;93.38;99605.41;5051834;28;20228;-76
2022/09/16 02:41:13;;;;;;;2.30;1.60;;;;;;;11.58;93.06;99605.16;5052316;28;20281;-76
2022/09/16 02:43:40;;;;;;;2.57;1.40;;;;;;;11.55;92.72;99610.47;5052039;28;20212;-75
2022/09/16 02:46:14;;;;;;;5.63;1.57;;;;;;;11.64;92.56;99621.44;5051858;28;20203;-76
2022/09/16 02:48:53;;;;;;;1.93;1.60;;;;;;;11.67;92.13;99631.81;5052108;28;20262;-76
2022/09/16 02:51:32;;;;;;;5.07;1.50;;;;;;;11.64;91.48;99650.19;5052068;28;20257;-76
2022/09/16 02:54:04;;;;;;;3.50;1.67;;;;;;;11.68;91.53;99658.78;5051528;28;20278;-76
2022/09/16 02:56:34;;;;;;;3.83;1.53;;;;;;;11.55;91.88;99647.91;5051595;28;20252;-76
2022/09/16 02:59:02;;;;;;;4.60;1.87;;;;;;;11.66;91.29;99650.16;5051992;28;20218;-76
2022/09/16 03:01:32;;;;;;;2.93;1.77;;;;;;;11.63;91.45;99653.72;5052091;28;20199;-76
2022/09/16 03:04:00;;;;;;;4.87;2.30;;;;;;;11.64;91.74;99652.81;5051808;28;20231;-76
2022/09/16 03:06:28;;;;;;;2.07;1.60;;;;;;;11.50;92.18;99639.41;5051822;28;20207;-76
2022/09/16 03:08:59;;;;;;;2.33;1.50;;;;;;;11.48;92.49;99623.75;5051654;28;20215;-76
2022/09/16 03:11:47;;;;;;;3.43;1.50;;;;;;;11.47;92.94;99616.81;5051836;28;20211;-76
2022/09/16 03:14:43;;;;;;;2.00;1.80;;;;;;;11.35;93.11;99601.59;5051821;28;20231;-76
2022/09/16 03:17:22;;;;;;;1.73;1.57;;;;;;;11.47;93.28;99590.69;5044535;28;20229;-79
2022/09/16 03:19:59;;;;;;;4.10;1.97;;;;;;;11.49;93.19;99599.31;5053906;28;20196;-76
2022/09/16 03:22:41;;;;;;;2.97;1.60;;;;;;;11.58;92.87;99608.59;5051703;28;20216;-76
2022/09/16 03:25:16;;;;;;;2.07;1.50;;;;;;;11.53;92.93;99610.53;5051632;28;20224;-76
2022/09/16 03:27:50;;;;;;;2.00;1.50;;;;;;;11.48;93.34;99600.25;5051930;28;20291;-76
2022/09/16 03:30:17;;;;;;;2.90;1.60;;;;;;;11.44;93.54;99592.56;5051562;28;20675;-76
2022/09/16 03:32:51;;;;;;;2.87;1.97;;;;;;;11.44;93.95;99575.13;5051488;28;20210;-75
2022/09/16 03:35:26;;;;;;;3.03;1.50;;;;;;;11.49;93.81;99582.78;5051343;28;20236;-76
2022/09/16 03:37:55;;;;;;;3.47;1.80;;;;;;;11.40;94.19;99581.38;5051271;28;20254;-75
2022/09/16 03:40:23;;;;;;;2.27;1.67;;;;;;;11.43;94.03;99573.41;5051322;28;20208;-76
2022/09/16 03:42:49;;;;;;;3.17;1.70;;;;;;;11.47;93.92;99575.00;5051504;28;20250;-76
2022/09/16 03:45:19;;;;;;;2.47;1.90;;;;;;;11.59;93.29;99597.22;5051212;28;20273;-76
2022/09/16 03:47:48;;;;;;;2.07;1.73;;;;;;;11.64;92.64;99608.38;5051367;28;20615;-76
2022/09/16 03:50:15;;;;;;;3.33;2.27;;;;;;;11.71;92.37;99620.31;5055679;28;20216;-77
2022/09/16 03:52:43;;;;;;;3.53;1.70;;;;;;;11.76;91.76;99630.59;5054390;28;20260;-76
2022/09/16 03:55:10;;;;;;;2.53;1.70;;;;;;;11.71;92.04;99632.53;5055045;28;20360;-76
2022/09/16 03:57:37;;;;;;;3.87;1.87;;;;;;;11.70;92.08;99639.53;5054907;28;20306;-76
2022/09/16 04:00:04;;;;;;;2.20;1.63;;;;;;;11.75;91.82;99638.50;5055248;28;20211;-76
2022/09/16 04:02:30;;;;;;;2.93;1.83;;;;;;;11.75;91.69;99639.34;5054939;28;20620;-77
2022/09/16 04:04:57;;;;;;;2.57;1.87;;;;;;;11.67;91.37;99650.09;5054901;28;20230;-76
2022/09/16 04:07:23;;;;;;;4.67;1.70;;;;;;;11.72;91.67;99627.25;5055080;28;20211;-76
2022/09/16 04:09:51;;;;;;;3.13;2.00;;;;;;;11.60;92.13;99621.63;5055115;28;20203;-76
2022/09/16 04:12:17;;;;;;;3.43;1.67;;;;;;;11.67;92.72;99610.91;5054976;28;20203;-76
2022/09/16 04:14:44;;;;;;;3.10;1.80;;;;;;;11.72;92.15;99618.56;5054600;28;20235;-76
2022/09/16 04:17:10;;;;;;;2.67;1.63;;;;;;;11.67;92.19;99615.25;5054239;28;20764;-77
2022/09/16 04:19:37;;;;;;;2.73;2.03;;;;;;;11.56;93.09;99586.06;5054483;28;20211;-76
2022/09/16 04:22:03;;;;;;;2.10;1.90;;;;;;;11.50;93.10;99587.13;5054486;28;20739;-76
2022/09/16 04:24:29;;;;;;;2.87;1.90;;;;;;;11.59;93.34;99578.09;5054156;28;20229;-76
2022/09/16 04:26:57;;;;;;;3.20;2.40;;;;;;;11.63;92.56;99582.28;5054527;28;20204;-77
2022/09/16 04:29:24;;;;;;;3.10;2.40;;;;;;;11.63;92.27;99613.66;5054416;28;20214;-76
2022/09/16 04:31:50;;;;;;;3.90;2.77;;;;;;;11.72;92.10;99622.00;5054599;28;20262;-77
2022/09/16 04:34:16;;;;;;;3.43;2.43;;;;;;;11.71;92.50;99612.47;5053737;28;20294;-76
2022/09/16 04:36:43;;;;;;;2.50;2.30;;;;;;;11.79;91.89;99616.56;5053860;28;20200;-76
2022/09/16 04:39:10;;;;;;;2.80;2.60;;;;;;;11.80;91.45;99626.97;5050897;28;20223;-76
2022/09/16 04:41:37;;;;;;;2.50;2.30;;;;;;;11.90;91.38;99640.59;5052595;28;20201;-76
2022/09/16 04:44:05;;;;;;;2.23;2.10;;;;;;;11.91;90.78;99645.75;5053917;28;20226;-75
2022/09/16 04:46:32;;;;;;;3.00;2.33;;;;;;;11.73;90.75;99647.25;5053393;28;20203;-76
2022/09/16 04:49:00;;;;;;;6.73;2.50;;;;;;;11.88;90.88;99648.44;5055012;28;20210;-76
2022/09/16 04:51:27;;;;;;;3.53;2.67;;;;;;;11.88;90.99;99647.59;5055456;28;20638;-76
2022/09/16 04:53:54;;;;;;;3.77;2.17;;;;;;;11.94;90.46;99659.63;5053695;28;20708;-76
2022/09/16 04:56:23;;;;;;;5.57;2.30;;;;;;;11.92;90.09;99659.69;5053797;28;20206;-77
2022/09/16 04:58:52;;;;;;;4.37;2.70;;;;;;;11.81;90.38;99669.66;5053680;28;20660;-76
2022/09/16 05:01:22;;;;;;;3.23;2.20;;;;;;;11.73;90.80;99647.25;5052699;28;20209;-77
2022/09/16 05:03:51;;;;;;;2.57;2.37;;;;;;;11.71;91.66;99638.63;5053792;28;20212;-76
2022/09/16 05:06:20;;;;;;;3.37;3.07;;;;;;;11.68;91.96;99623.03;5053288;28;20203;-76
2022/09/16 05:08:46;;;;;;;2.23;1.80;;;;;;;11.61;91.93;99610.25;5053192;28;20201;-76
2022/09/16 05:11:15;;;;;;;3.33;1.67;;;;;;;11.69;91.96;99611.69;5053362;28;20276;-76
2022/09/16 05:13:42;;;;;;;3.03;1.60;;;;;;;11.53;92.16;99602.69;5052741;28;20203;-75
2022/09/16 05:16:10;;;;;;;2.70;2.17;;;;;;;11.57;92.14;99601.66;5052472;28;20616;-76
2022/09/16 05:18:39;;;;;;;2.70;2.23;;;;;;;11.62;92.05;99611.97;5053143;28;20277;-76
2022/09/16 05:21:07;;;;;;;2.93;1.80;;;;;;;11.67;91.69;99617.84;5053475;28;20267;-76
2022/09/16 05:23:34;;;;;;;2.77;1.73;;;;;;;11.78;91.70;99622.72;5053337;28;20215;-75
2022/09/16 05:26:03;;;;;;;2.83;1.60;;;;;;;11.77;90.93;99642.75;5053091;28;20207;-76
2022/09/16 05:28:30;;;;;;;3.57;1.90;;;;;;;11.76;90.71;99648.06;5052945;28;20586;-76
2022/09/16 05:31:07;;;;;;;2.27;1.47;;;;;;;11.66;91.25;99645.78;5053300;28;20214;-75
2022/09/16 05:33:34;;;;;;;3.07;1.67;;;;;;;11.73;91.67;99626.34;5053353;28;20294;-75
2022/09/16 05:36:05;;;;;;;6.53;3.20;;;;;;;11.85;91.08;99642.47;5052720;28;20575;-76
2022/09/16 05:38:32;;;;;;;2.73;2.17;;;;;;;11.77;91.60;99632.28;5053301;28;20255;-75
2022/09/16 05:40:59;;;;;;;3.60;1.97;;;;;;;11.59;92.06;99625.97;5052483;28;20674;-75
2022/09/16 05:43:25;;;;;;;4.03;2.10;;;;;;;11.64;92.42;99610.16;5052635;28;20708;-76
2022/09/16 05:45:52;;;;;;;3.33;2.30;;;;;;;11.68;91.96;99609.97;5052677;28;20223;-75
2022/09/16 05:48:18;;;;;;;3.63;2.17;;;;;;;11.64;92.01;99616.22;5052552;28;20249;-75
2022/09/16 05:50:51;;;;;;;4.27;2.10;;;;;;;11.63;92.69;99601.44;5052324;28;20670;-76
2022/09/16 05:53:19;;;;;;;5.00;3.10;;;;;;;11.56;93.25;99583.44;5052055;28;20208;-75
2022/09/16 05:55:54;;;;;;;7.07;3.00;;;;;;;11.60;93.19;99590.25;5052385;28;20273;-75
2022/09/16 05:58:21;;;;;;;4.10;2.90;;;;;;;11.65;93.12;99590.91;5052432;28;20227;-76
2022/09/16 06:00:47;;;;;;;2.40;2.20;;;;;;;11.71;92.92;99593.31;5052775;28;20212;-76
2022/09/16 06:03:14;;;;;;;6.03;2.50;;;;;;;11.68;93.00;99601.28;5052553;28;20209;-75
2022/09/16 06:05:40;;;;;;;1.83;1.73;;;;;;;11.84;92.01;99610.25;5052365;28;20250;-76
2022/09/16 06:08:06;;;;;;;2.80;2.13;;;;;;;11.85;92.13;99618.94;5043147;28;20250;-76
2022/09/16 06:10:38;;;;;;;2.47;1.90;;;;;;;11.77;92.15;99641.91;5041945;28;20635;-75
2022/09/16 06:13:04;;;;;;;2.73;2.53;;;;;;;11.89;91.66;99636.25;5035510;28;20608;-75
2022/09/16 06:15:31;;;;;;;3.07;2.50;;;;;;;11.86;91.46;99636.34;5031973;28;20229;-75
2022/09/16 06:17:57;;;;;;;3.10;2.43;;;;;;;11.99;91.35;99640.25;5032078;28;20513;-75
2022/09/16 06:20:24;;;;;;;3.57;1.97;;;;;;;11.91;91.40;99651.00;5031911;28;20234;-76
2022/09/16 06:22:51;;;;;;;2.53;2.17;;;;;;;11.92;90.92;99647.44;5035496;28;20210;-75
2022/09/16 06:25:18;;;;;;;5.97;1.93;;;;;;;11.92;90.45;99667.53;5051632;28;20231;-75
2022/09/16 06:27:46;;;;;;;2.30;2.10;;;;;;;11.90;91.04;99670.19;5051813;28;20682;-75
2022/09/16 06:30:12;;;;;;;3.33;2.00;;;;;;;11.90;90.68;99675.44;5051594;28;20211;-75
2022/09/16 06:32:38;;;;;;;1.70;1.60;;;;;;;11.92;90.64;99678.00;5040459;28;20872;-75
2022/09/16 06:35:05;;;;;;;2.30;2.10;;;;;;;11.97;90.83;99677.81;5041378;28;20223;-75
2022/09/16 06:37:33;;;;;;;4.13;1.93;;;;;;;12.08;90.25;99689.59;5037142;28;20213;-76
2022/09/16 06:39:59;;;;;;;2.20;1.97;;;;;;;11.95;89.72;99703.16;5032010;28;20274;-76
2022/09/16 06:42:26;;;;;;;3.57;1.83;;;;;;;11.95;89.75;99695.31;5031695;28;20215;-75
2022/09/16 06:44:54;;;;;;;2.93;2.10;;;;;;;11.90;89.58;99704.19;5031737;28;20233;-75
2022/09/16 06:47:21;;;;;;;2.20;1.70;;;;;;;11.97;89.16;99698.75;5040183;28;20207;-76
2022/09/16 06:49:47;;;;;;;2.60;1.77;;;;;;;11.93;88.87;99716.28;5042393;28;20201;-76
2022/09/16 06:52:13;;;;;;;3.40;1.60;;;;;;;12.05;89.02;99721.09;5041086;28;20280;-75
2022/09/16 06:54:40;;;;;;;5.20;1.70;;;;;;;12.18;87.91;99742.41;5047366;28;20644;-74
2022/09/16 06:57:07;;;;;;;3.97;1.90;;;;;;;12.28;87.10;99777.81;5042970;28;20200;-75
2022/09/16 06:59:33;;;;;;;2.03;1.70;;;;;;;12.29;86.07;99795.22;5041289;28;20220;-73
2022/09/16 07:02:01;;;;;;;5.10;2.30;;;;;;;12.40;85.33;99814.91;5041551;28;20728;-75
2022/09/16 07:04:27;;;;;;;2.20;1.60;;;;;;;12.44;83.83;99856.63;5041783;28;20786;-74
2022/09/16 07:06:56;;;;;;;2.20;1.40;;;;;;;12.56;84.04;99878.03;5041184;28;20196;-74
2022/09/16 07:09:23;;;;;;;2.93;1.33;;;;;;;12.60;83.13;99890.94;5039975;28;20282;-75
2022/09/16 07:11:49;;;;;;;2.30;1.57;;;;;;;12.52;83.09;99909.53;5042122;28;20212;-74
2022/09/16 07:14:15;;;;;;;2.37;1.43;;;;;;;12.43;84.02;99888.09;5040895;28;20225;-75
2022/09/16 07:16:42;;;;;;;2.10;1.33;;;;;;;12.52;83.36;99886.00;5040014;28;20282;-74
2022/09/16 07:19:10;;;;;;;4.63;2.10;;;;;;;12.59;83.01;99910.19;5041956;28;20221;-75
2022/09/16 07:21:36;;;;;;;3.07;1.60;;;;;;;12.64;83.40;99905.63;5038779;28;20675;-75
2022/09/16 07:24:03;;;;;;;2.77;1.70;;;;;;;12.57;83.70;99892.84;5042299;28;20238;-75
2022/09/16 07:26:32;;;;;;;3.93;1.77;;;;;;;12.59;82.63;99907.59;5048266;28;20611;-78
2022/09/16 07:29:00;;;;;;;2.27;1.73;;;;;;;12.43;82.88;99907.28;5047989;28;20264;-78
2022/09/16 07:31:29;;;;;;;2.17;1.70;;;;;;;12.60;83.32;99914.50;5048579;28;21045;-75
2022/09/16 07:33:57;;;;;;;6.30;1.70;;;;;;;12.67;82.41;99909.94;5048277;28;20600;-75
2022/09/16 07:36:28;;;;;;;2.07;1.57;;;;;;;12.61;82.69;99897.91;5045719;28;20248;-75
2022/09/16 07:38:57;;;;;;;1.90;1.80;;;;;;;12.62;82.09;99922.31;5044984;28;20255;-75
2022/09/16 07:41:26;;;;;;;3.17;1.67;;;;;;;12.62;83.25;99891.75;5043782;28;20205;-76
2022/09/16 07:43:54;;;;;;;4.07;1.73;;;;;;;12.51;81.45;99934.03;5045120;28;20215;-75
2022/09/16 07:46:21;;;;;;;3.83;1.63;;;;;;;12.56;82.15;99923.38;5045436;28;20250;-76
2022/09/16 07:48:49;;;;;;;2.17;1.40;;;;;;;12.67;82.37;99910.78;5045871;28;20197;-76
2022/09/16 07:51:17;;;;;;;2.47;1.43;;;;;;;12.65;82.25;99914.38;5045010;28;20654;-76
2022/09/16 07:53:46;;;;;;;1.53;1.43;;;;;;;12.68;82.37;99935.19;5049154;28;20611;-75
2022/09/16 07:56:14;;;;;;;2.90;1.73;;;;;;;12.68;81.75;99936.03;5047520;28;20257;-75
2022/09/16 07:58:41;;;;;;;3.13;1.50;;;;;;;12.75;81.54;99946.31;5045613;28;20281;-76
2022/09/16 08:01:08;;;;;;;1.93;1.30;;;;;;;12.83;80.34;99970.47;5045782;28;20207;-76
2022/09/16 08:03:36;;;;;;;2.23;1.30;;;;;;;12.67;78.21;100012.91;5044330;28;20201;-74
2022/09/16 08:06:05;;;;;;;3.17;1.67;;;;;;;12.85;80.35;99997.47;5043470;28;20262;-76
2022/09/16 08:08:31;;;;;;;3.90;2.20;;;;;;;12.83;79.84;99991.44;5044769;28;20270;-76
2022/09/16 08:11:00;;;;;;;2.47;1.33;;;;;;;12.91;79.95;99999.88;5044745;28;20269;-76
2022/09/16 08:13:28;;;;;;;3.13;1.23;;;;;;;12.98;78.88;100024.91;5043266;28;20205;-75
2022/09/16 08:15:59;;;;;;;3.90;1.13;;;;;;;13.00;77.04;100061.53;5043850;28;20248;-75
2022/09/16 08:18:25;;;;;;;3.13;0.97;;;;;;;13.15;77.32;100075.88;5045314;28;20278;-75
2022/09/16 08:20:52;;;;;;;2.70;1.60;;;;;;;13.24;76.02;100101.75;5042598;28;20200;-75
2022/09/16 08:23:19;;;;;;;2.83;1.83;;;;;;;13.23;75.52;100142.84;5046897;28;20727;-76
2022/09/16 08:25:46;;;;;;;2.13;1.20;;;;;;;13.30;75.33;100143.53;5050948;28;20226;-75
2022/09/16 08:28:14;;;;;;;3.23;1.13;;;;;;;13.21;74.09;100180.50;5044064;28;20758;-74
2022/09/16 08:30:41;;;;;;;2.10;0.90;;;;;;;13.28;75.94;100146.16;5044950;28;20292;-75
2022/09/16 08:33:08;;;;;;;2.17;0.70;;;;;;;13.44;75.07;100148.28;5044865;28;20354;-76
2022/09/16 08:35:35;;;;;;;3.60;1.10;;;;;;;13.45;74.75;100158.69;5043449;28;20710;-76
2022/09/16 08:38:01;;;;;;;4.30;1.10;;;;;;;13.49;74.01;100162.94;5042733;28;20269;-74
2022/09/16 08:40:33;;;;;;;2.77;1.00;;;;;;;13.55;73.51;100180.22;5044769;28;20293;-76
2022/09/16 08:43:09;;;;;;;2.83;1.00;;;;;;;13.64;73.33;100197.41;5050152;28;20207;-74
2022/09/16 08:45:43;;;;;;;3.00;1.00;;;;;;;13.53;72.73;100210.03;5053986;28;20231;-74
2022/09/16 08:48:26;;;;;;;2.93;1.03;;;;;;;13.68;72.55;100220.84;5054335;28;20191;-74
2022/09/16 08:50:53;;;;;;;3.83;0.80;;;;;;;13.76;70.71;100259.06;5053868;28;20191;-75
2022/09/16 08:53:34;;;;;;;4.43;0.90;;;;;;;13.78;69.88;100286.97;5054116;28;20265;-75
2022/09/16 08:56:04;;;;;;;1.30;0.70;;;;;;;13.79;69.52;100340.28;5047090;28;20605;-76
2022/09/16 08:58:38;;;;;;;2.77;0.63;;;;;;;13.91;69.36;100334.59;5054106;28;20247;-76
2022/09/16 09:01:24;;;;;;;2.87;0.43;;;;;;;13.86;68.39;100368.88;5053399;28;20266;-74
2022/09/16 09:03:50;;;;;;;2.03;0.80;;;;;;;14.06;69.63;100341.09;5053927;28;20301;-76
2022/09/16 09:06:38;;;;;;;2.40;0.90;;;;;;;14.05;67.62;100370.88;5053144;28;20215;-74
2022/09/16 09:09:15;;;;;;;3.93;0.90;;;;;;;14.27;67.75;100413.00;5053849;28;20258;-76
2022/09/16 09:11:49;;;;;;;2.87;0.63;;;;;;;14.27;65.20;100465.50;5053326;28;20574;-75
2022/09/16 09:14:36;;;;;;;4.30;0.83;;;;;;;14.34;65.08;100461.78;5053420;28;20573;-74
2022/09/16 09:17:12;;;;;;;2.00;0.80;;;;;;;14.39;65.05;100491.38;5053265;28;20220;-75
2022/09/16 09:20:07;;;;;;;3.27;1.27;;;;;;;14.37;65.10;100487.06;5052995;28;20224;-75
2022/09/16 09:22:53;;;;;;;3.50;0.80;;;;;;;14.38;65.05;100483.53;5053164;28;20670;-75
2022/09/16 09:25:33;;;;;;;3.30;0.70;;;;;;;14.43;65.70;100465.84;5053155;28;20234;-76
2022/09/16 09:28:20;;;;;;;3.30;0.83;;;;;;;14.46;65.09;100471.84;5032647;28;20679;-74
2022/09/16 09:30:56;;;;;;;2.10;0.67;;;;;;;14.30;65.31;100481.16;5033084;28;20726;-75
2022/09/16 09:33:34;;;;;;;4.97;0.90;;;;;;;14.46;64.35;100482.34;5033328;28;20282;-75
2022/09/16 09:36:21;;;;;;;4.20;1.10;;;;;;;14.40;63.80;100508.81;5032999;28;20266;-74
2022/09/16 09:39:03;;;;;;;3.03;1.10;;;;;;;14.44;64.57;100493.84;5032915;28;20625;-74
2022/09/16 09:41:34;;;;;;;2.03;0.70;;;;;;;14.61;63.63;100477.53;5033083;28;20244;-76
2022/09/16 09:44:14;;;;;;;1.67;0.63;;;;;;;14.66;62.20;100546.53;5033012;28;20256;-74
2022/09/16 09:46:46;;;;;;;2.60;0.70;;;;;;;14.63;60.79;100557.16;5032463;28;20191;-74
2022/09/16 09:49:23;;;;;;;2.63;0.87;;;;;;;14.87;60.66;100566.81;5032489;28;20591;-76
2022/09/16 09:51:57;;;;;;;2.77;0.80;;;;;;;14.77;59.43;100596.94;5045008;28;20203;-75
2022/09/16 09:54:28;;;;;;;4.07;0.97;;;;;;;14.79;60.27;100602.16;5052714;28;20267;-77
2022/09/16 09:56:59;;;;;;;1.63;0.97;;;;;;;14.74;59.73;100611.97;5050936;28;20665;-76
2022/09/16 09:59:32;;;;;;;5.03;1.17;;;;;;;14.87;58.21;100615.91;5051494;28;20582;-74
2022/09/16 10:02:00;;;;;;;3.53;1.03;;;;;;;14.94;58.08;100664.69;5053026;28;20215;-76
2022/09/16 10:04:30;;;;;;;4.20;0.60;;;;;;;14.92;58.49;100673.56;5052234;28;20283;-74
2022/09/16 10:06:58;;;;;;;2.40;0.60;;;;;;;14.95;58.86;100634.03;5052559;28;20294;-75
2022/09/16 10:09:25;;;;;;;2.07;0.50;;;;;;;14.92;59.42;100616.56;5052692;28;20209;-75
2022/09/16 10:11:54;;;;;;;3.27;0.80;;;;;;;14.74;60.33;100598.81;5052095;28;20645;-74
2022/09/16 10:14:26;;;;;;;7.37;1.53;;;;;;;14.32;64.12;100518.72;5052313;28;20228;-74
2022/09/16 10:16:54;;;;;;;4.33;0.80;;;;;;;14.36;63.34;100433.69;5051934;28;20211;-74
2022/09/16 10:19:23;;;;;;;2.40;1.10;;;;;;;14.47;64.20;100394.78;5051954;28;20269;-75
2022/09/16 10:21:53;;;;;;;4.47;1.07;;;;;;;14.48;64.41;100369.38;5052221;28;20220;-75
2022/09/16 10:24:30;;;;;;;5.13;0.70;;;;;;;14.41;61.39;100395.00;5052337;28;20236;-75
2022/09/16 10:26:57;;;;;;;4.30;1.07;;;;;;;14.32;60.73;100468.84;5051723;28;20576;-74
2022/09/16 10:29:24;;;;;;;3.17;1.20;;;;;;;14.56;61.68;100469.78;5051793;28;20670;-76
2022/09/16 10:31:50;;;;;;;2.63;1.37;;;;;;;14.76;61.33;100463.81;5051993;28;20208;-75
2022/09/16 10:34:32;;;;;;;2.53;0.90;;;;;;;14.77;58.82;100531.25;5052025;28;20224;-74
2022/09/16 10:37:03;;;;;;;4.47;1.10;;;;;;;15.03;58.37;100540.00;5052061;28;20613;-76
2022/09/16 10:39:31;;;;;;;2.97;1.13;;;;;;;15.08;58.28;100578.34;5052006;28;20293;-75
2022/09/16 10:41:58;;;;;;;5.60;1.00;;;;;;;15.29;58.15;100579.34;5051868;28;20213;-77
2022/09/16 10:44:27;;;;;;;2.50;0.60;;;;;;;15.24;58.12;100594.44;5051612;28;20714;-75
2022/09/16 10:46:57;;;;;;;7.90;1.00;;;;;;;15.26;58.15;100573.31;5051718;28;20208;-75
2022/09/16 10:49:33;;;;;;;2.30;0.60;;;;;;;15.37;58.73;100578.22;5052106;28;20201;-77
2022/09/16 10:52:09;;;;;;;1.87;0.60;;;;;;;15.45;56.60;100577.00;5051986;28;20213;-76
2022/09/16 10:54:36;;;;;;;4.30;0.83;;;;;;;15.30;56.26;100619.63;5051620;28;20227;-76
2022/09/16 10:57:02;;;;;;;2.70;0.50;;;;;;;15.17;56.42;100637.63;5051597;28;20268;-75
2022/09/16 10:59:28;;;;;;;3.07;0.60;;;;;;;15.23;57.36;100616.38;5051026;28;20224;-76
2022/09/16 11:02:06;;;;;;;2.17;0.70;;;;;;;15.51;56.66;100577.69;5051869;28;20231;-77
2022/09/16 11:04:48;;;;;;;3.67;0.60;;;;;;;15.66;53.55;100613.97;5051863;28;20228;-75
2022/09/16 11:07:27;;;;;;;2.43;0.67;;;;;;;15.34;51.66;100730.88;5051810;28;20213;-75
2022/09/16 11:09:59;;;;;;;3.03;0.70;;;;;;;15.36;52.27;100785.16;5052467;28;20189;-75
2022/09/16 11:12:49;;;;;;;3.23;0.77;;;;;;;15.37;52.29;100789.50;5052192;28;20245;-76
2022/09/16 11:15:27;;;;;;;2.77;0.80;;;;;;;15.57;52.24;100759.88;5042532;28;20225;-75
2022/09/16 11:18:08;;;;;;;1.47;0.63;;;;;;;15.51;50.71;100801.34;5051839;28;20283;-75
2022/09/16 11:20:46;;;;;;;5.97;1.40;;;;;;;15.60;50.93;100809.78;5051928;28;20306;-76
2022/09/16 11:23:27;;;;;;;3.03;1.00;;;;;;;15.66;50.49;100825.38;5052057;28;20189;-75
2022/09/16 11:25:59;;;;;;;2.70;0.73;;;;;;;15.77;49.87;100838.19;5051099;28;20229;-77
2022/09/16 11:28:51;;;;;;;5.50;0.57;;;;;;;15.84;50.09;100809.88;5051729;28;20220;-77
2022/09/16 11:31:32;;;;;;;2.37;0.70;;;;;;;16.52;49.92;100807.44;5051857;28;20217;-76
2022/09/16 11:34:07;;;;;;;3.17;0.70;;;;;;;17.01;48.65;100792.38;5051828;28;20271;-77
2022/09/16 11:36:44;;;;;;;8.90;1.37;;;;;;;17.20;47.05;100834.69;5051739;28;20193;-76
2022/09/16 11:39:31;;;;;;;1.60;0.60;;;;;;;18.13;46.39;100892.47;5051781;28;20190;-76
2022/09/16 11:42:04;;;;;;;2.60;0.70;;;;;;;18.53;44.86;100954.19;5052021;28;20194;-76
2022/09/16 11:44:41;;;;;;;2.17;0.70;;;;;;;19.11;43.62;100978.06;5052928;28;20232;-78
2022/09/16 11:47:26;;;;;;;1.60;0.60;;;;;;;18.94;43.60;101013.22;5052810;28;20189;-77
2022/09/16 11:50:07;;;;;;;3.00;0.80;;;;;;;17.55;45.83;101018.03;5052133;28;20231;-77